Terminal Aerodrome Forecast
Issued by NWS

Home | Current Version | Previous Version | Text Only | Print | Product List | Glossary On
Versions: 1 2 3 4 5 6 7 8 9 10 11 12
000
FTUS46 KPDT 230500
TAFDLS
TAF
KDLS 230525Z 2306/2406 31011KT P6SM -SHRA VCTS SCT060CB BKN100
     FM230800 30008KT P6SM VCSH SCT060 BKN100
     FM231900 31020G30KT P6SM -TSRA BKN060CB OVC090
     FM240100 32022G32KT P6SM VCSH SCT060 BKN090=

USA.gov is the U.S. government's official web portal to all federal, state and local government web resources and services.